História METAR Noord Nederlandse Zweefvliegclub (NL-0036)

22 de maio de 2022

Tempo Código Clima Temp. Visão Nuvens Vento METAR/SPECI
09:20
L
14 °C 0 m - Var   000° 0 kt METAR ETNT 220720Z AUTO /////KT //// // ////// 14/07 Q1017 ///
08:20
L
13 °C 0 m - Var   000° 0 kt METAR ETNT 220620Z AUTO /////KT //// // ////// 13/09 Q1017 ///
07:20
L
9 °C 0 m - Var   000° 0 kt METAR ETNT 220520Z AUTO /////KT //// // ////// 09/09 Q1017 ///
06:20
L
7 °C 0 m - Var   000° 0 kt METAR ETNT 220420Z AUTO /////KT //// // ////// 07/06 Q1017 ///
05:20
L
7 °C 0 m - Var   000° 0 kt METAR ETNT 220320Z AUTO /////KT //// // ////// 07/07 Q1017 ///
04:20
L
7 °C 0 m - Var   000° 0 kt METAR ETNT 220220Z AUTO /////KT //// // ////// 07/07 Q1018 ///
03:20
L
7 °C 0 m - Var   000° 0 kt METAR ETNT 220120Z AUTO /////KT //// // ////// 07/07 Q1018 ///
02:20
L
8 °C 0 m - Var   000° 0 kt METAR ETNT 220020Z AUTO /////KT //// // ////// 08/08 Q1018 ///
01:20
L
10 °C 0 m - Var   000° 0 kt METAR ETNT 212320Z AUTO /////KT //// // ////// 10/09 Q1018 ///
00:20
L
10 °C 0 m - Var   000° 0 kt METAR ETNT 212220Z AUTO /////KT //// // ////// 10/08 Q1018 ///

21 de maio de 2022

Tempo Código Clima Temp. Visão Nuvens Vento METAR/SPECI
23:20
L
11 °C 0 m - Var   000° 0 kt METAR ETNT 212120Z AUTO /////KT //// // ////// 11/09 Q1019 ///
22:20
L
12 °C 0 m - Var   000° 0 kt METAR ETNT 212020Z AUTO /////KT //// // ////// 12/09 Q1019 ///
21:20
L
12 °C 0 m - Var   000° 0 kt METAR ETNT 211920Z AUTO /////KT //// // ////// 12/09 Q1019 ///
20:20
L
13 °C 0 m - Var   000° 0 kt METAR ETNT 211820Z AUTO /////KT //// // ////// 13/09 Q1019 ///
19:20
L
14 °C 0 m - Var   000° 0 kt METAR ETNT 211720Z AUTO /////KT //// // ////// 14/08 Q1019 ///
18:20
L
15 °C 0 m - Var   000° 0 kt METAR ETNT 211620Z AUTO /////KT //// // ////// 15/09 Q1019 ///
17:20
L
15 °C 0 m - Var   000° 0 kt METAR ETNT 211520Z AUTO /////KT //// // ////// 15/08 Q1019 ///
16:20
L
16 °C 0 m - Var   000° 0 kt METAR ETNT 211420Z AUTO /////KT //// // ////// 16/09 Q1019 ///
15:20
L
16 °C 0 m - Var   000° 0 kt METAR ETNT 211320Z AUTO /////KT //// // ////// 16/10 Q1018 ///
14:20
L
16 °C 0 m - Var   000° 0 kt METAR ETNT 211220Z AUTO /////KT //// // ////// 16/10 Q1018 ///
13:20
L
16 °C 0 m - Var   000° 0 kt METAR ETNT 211120Z AUTO /////KT //// // ////// 16/10 Q1018 ///
12:20
L
15 °C 0 m - Var   000° 0 kt METAR ETNT 211020Z AUTO /////KT //// // ////// 15/10 Q1017 ///
11:20
L
15 °C 0 m - Var   000° 0 kt METAR ETNT 210920Z AUTO /////KT //// // ////// 15/11 Q1017 ///
10:20
L
15 °C 0 m - Var   000° 0 kt METAR ETNT 210820Z AUTO /////KT //// // ////// 15/11 Q1016 ///
09:20
L
13 °C 0 m - Var   000° 0 kt METAR ETNT 210720Z AUTO /////KT //// // ////// 13/10 Q1015 ///
08:20
L
13 °C 0 m - Var   000° 0 kt METAR ETNT 210620Z AUTO /////KT //// // ////// 13/11 Q1015 ///
07:20
L
13 °C 0 m - Var   000° 0 kt METAR ETNT 210520Z AUTO /////KT //// // ////// 13/12 Q1014 ///
06:20
L
12 °C 0 m - Var   000° 0 kt METAR ETNT 210420Z AUTO /////KT //// // ////// 12/12 Q1014 ///
05:20
L
11 °C 0 m - Var   000° 0 kt METAR ETNT 210320Z AUTO /////KT //// // ////// 11/10 Q1014 ///
04:20
L
11 °C 0 m - Var   000° 0 kt METAR ETNT 210220Z AUTO /////KT //// // ////// 11/10 Q1015 ///
03:20
L
11 °C 0 m - Var   000° 0 kt METAR ETNT 210120Z AUTO /////KT //// // ////// 11/09 Q1015 ///
02:20
L
10 °C 0 m - Var   000° 0 kt METAR ETNT 210020Z AUTO /////KT //// // ////// 10/09 Q1015 ///
01:20
L
10 °C 0 m - Var   000° 0 kt METAR ETNT 202320Z AUTO /////KT //// // ////// 10/09 Q1015 ///
00:20
L
11 °C 0 m - Var   000° 0 kt METAR ETNT 202220Z AUTO /////KT //// // ////// 11/10 Q1014 ///

20 de maio de 2022

Tempo Código Clima Temp. Visão Nuvens Vento METAR/SPECI
23:20
L
12 °C 0 m - Var   000° 0 kt METAR ETNT 202120Z AUTO /////KT //// // ////// 12/11 Q1014 ///
22:20
L
12 °C 0 m - Var   000° 0 kt METAR ETNT 202020Z AUTO /////KT //// // ////// 12/11 Q1013 ///
21:20
L
12 °C 0 m - Var   000° 0 kt METAR ETNT 201920Z AUTO /////KT //// // ////// 12/11 Q1011 ///
20:20
L
12 °C 0 m - Var   000° 0 kt METAR ETNT 201820Z AUTO /////KT //// // ////// 12/12 Q1011 ///
19:20
L
13 °C 0 m - Var   000° 0 kt METAR ETNT 201720Z AUTO /////KT //// // ////// 13/13 Q1011 ///
18:20
L
15 °C 0 m - Var   000° 0 kt METAR ETNT 201620Z AUTO /////KT //// // ////// 15/13 Q1012 ///
17:20
L
17 °C 0 m - Var   000° 0 kt METAR ETNT 201520Z AUTO /////KT //// // ////// 17/12 Q1012 ///
16:20
L
18 °C 0 m - Var   000° 0 kt METAR ETNT 201420Z AUTO /////KT //// // ////// 18/11 Q1014 ///
15:20
L
19 °C 0 m - Var   000° 0 kt METAR ETNT 201320Z AUTO /////KT //// // ////// 19/10 Q1015 ///
14:20
L
18 °C 0 m - Var   000° 0 kt METAR ETNT 201220Z AUTO /////KT //// // ////// 18/10 Q1016 ///
13:20
V
17 °C 10 km+ 14.000 ft 170°   170° 5 kt METAR ETNT 201120Z 17005KT 9999 FEW026 BKN140 BKN200 17/10 Q1018 BLACKBLU
12:20
V
17 °C 10 km+ 14.000 ft 200°   200° 3 kt METAR ETNT 201020Z 20003KT 9999 SCT026 BKN140 17/10 Q1019 BLACKBLU
11:20
V
16 °C 10 km+ - 220°   220° 4 kt METAR ETNT 200920Z 22004KT 9999 SCT022 SCT140 16/10 Q1020 BLACKBLU+FCST CNL
10:20
V
15 °C 10 km+ - 250°   250° 4 kt METAR ETNT 200820Z 25004KT 9999 SCT020 SCT260 15/10 Q1020 BLACKBLU+BLU+ TEMPO BLU
09:20
V
14 °C 10 km+ 26.000 ft 240°   240° 4 kt METAR ETNT 200720Z 24004KT 9999 SCT015 BKN260 14/09 Q1021 BLACKBLU+BLU+ TEMPO BLU
Dados mais antigos

Baixe nosso aplicativo

Fácil acesso a todas as condições meteorológicas da aviação no seu celular e no seu tablet.
Com muitos recursos não disponíveis no site, como suporte offline e uma lista pessoal de aeroportos.

Nós e terceiros acompanhamos seu comportamento na internet em nosso site com cookies. Se você continuar, nós assumimos que você concorda com nossa política de cookies. Saiba mais